Latest  Newer  Older  Last 2 hours animation  Current image  Latest image  Summary per 24h (testing)  Summary per 7d (testing) 
Cloud coverage sat images  Infrared sat images 
Real-time lightning map

All time is UTC (add 2 hours in wintertime, 3 hours in DST for Latvia local time)

2019/03/22 02:20 EVRA 220220Z 33010KT 300V360 9999 SCT045 03/M00 Q1022 R36/290195 NOSIG
2019/03/22 02:20 EVLA 220220Z AUTO 01007KT 330V060 9999 OVC037/// 05/02 Q1026
2019/03/22 02:20 EVVA 220220Z AUTO 33005KT CAVOK 02/01 Q1025
2019/03/22 02:20 EYKA 220220Z 28009KT 240V310 4100 BR OVC003 07/06 Q1022
2019/03/22 02:20 EYPA 220220Z AUTO 34007KT 310V020 9999 BKN005/// OVC033/// 05/04 Q1025
2019/03/22 02:20 EYSA 220220Z AUTO 32014KT 9999NDV FEW010 SCT054 06/05 Q1022 R32R/19//95
2019/03/22 02:20 EYVI 220220Z 29012KT 2600 BR OVC002 06/06 Q1021 R19/0///95 NOSIG
2019/03/21 15:50 EEKA 211550Z 23006KT 4300 DZ SCT004 BKN007 OVC019 05/05 Q1013
2019/03/22 01:50 EEKE 220150Z AUTO 33011KT 300V020 9999NDV NSC 04/M02 Q1023
2019/03/21 13:50 EEPU 211350Z 19007KT 150V230 3600 -RA BR BKN005 OVC008 03/03 Q1016
2019/03/22 02:20 EETN 220220Z 30014KT CAVOK 02/M04 Q1018 R08/290195
2019/03/22 01:50 EETU 220150Z AUTO 30013KT 9999 BKN100/// 03/00 Q1015
   RIGA AIRPORT     EVRA               56 55N  023 58E   10   X     T          6 LV
   LIEPAJA INTL     EVLA        26406  56 31N  021 06E    4   X                8 LV
   VENTPILS         EVVA               57 21N  021 33E    6   X                8 LV
   KAUNAS           EYKA               54 54N  023 55E   77   X     T          6 LT
   PALANGA INTL     EYPA               55 55N  021 03E   10   X                6 LT
   SIAULIAI INTL    EYSA               55 54N  023 24E  135   X     T          6 LT
   VILNIUS INTL     EYVI        26730  54 38N  025 17E  197   X     T          6 LT
   KARDLA           EEKA        26116  58 59N  022 50E    4   X                8 EE
   KURESSAARE       EEKE               58 14N  022 31E    4   X                8 EE
   PARNU            EEPU               58 25N  024 28E   14   X                8 EE
   TALLINN          EETN        26038  59 24N  024 49E   40   X     T          8 EE
   TARTU            EETU               58 19N  026 41E   67   X                8 EE

rain/snow radar image from www.meteo.lv and METAR data from weather.noaa.gov